PRSAU SBJH-SBTC
Flight info
| Callsign | PRSAU |
|---|---|
| Flight time | 1h 39m |
| Altitude | 41000 |
| Route | VUMEV UZ14 DALOX |
| Aircraft | E190/M-SDE3GILORVW/S |
Departure
| Time | 2026-05-05 20:52 |
|---|---|
| Airport | São Paulo Catarina Executive Airport (SBJH) |
Arrival
| Time | 2026-05-05 22:31 |
|---|---|
| Airport | Una-Comandatuba Airport (SBTC) |
| Time | Latitude | Longitude | Altitude | Speed | Heading |
|---|---|---|---|---|---|
| 2026-05-05 20:29 | -23.42513 | -47.16752 | 2627 ft | 0 kts | 52° |
| 2026-05-05 20:44 | -23.42520 | -47.16760 | 2627 ft | 2 kts | 37° |
| 2026-05-05 20:44 | -23.42529 | -47.16772 | 2627 ft | 2 kts | 57° |
| 2026-05-05 20:44 | -23.42536 | -47.16787 | 2627 ft | 2 kts | 89° |
| 2026-05-05 20:44 | -23.42536 | -47.16792 | 2627 ft | 1 kts | 100° |
| 2026-05-05 20:45 | -23.42524 | -47.16812 | 2627 ft | 1 kts | 152° |
| 2026-05-05 20:45 | -23.42520 | -47.16815 | 2627 ft | 0 kts | 147° |
| 2026-05-05 20:47 | -23.42527 | -47.16810 | 2627 ft | 3 kts | 147° |
| 2026-05-05 20:47 | -23.42550 | -47.16793 | 2627 ft | 4 kts | 146° |
| 2026-05-05 20:47 | -23.42584 | -47.16779 | 2627 ft | 5 kts | 176° |
| 2026-05-05 20:48 | -23.42628 | -47.16781 | 2627 ft | 6 kts | 185° |
| 2026-05-05 20:48 | -23.42662 | -47.16813 | 2627 ft | 7 kts | 258° |
| 2026-05-05 20:48 | -23.42663 | -47.16876 | 2627 ft | 9 kts | 274° |
| 2026-05-05 20:48 | -23.42657 | -47.16956 | 2627 ft | 11 kts | 274° |
| 2026-05-05 20:49 | -23.42650 | -47.17054 | 2626 ft | 14 kts | 274° |
| 2026-05-05 20:49 | -23.42642 | -47.17170 | 2626 ft | 16 kts | 274° |
| 2026-05-05 20:49 | -23.42633 | -47.17297 | 2626 ft | 17 kts | 274° |
| 2026-05-05 20:49 | -23.42624 | -47.17430 | 2626 ft | 18 kts | 274° |
| 2026-05-05 20:50 | -23.42614 | -47.17572 | 2626 ft | 19 kts | 274° |
| 2026-05-05 20:50 | -23.42604 | -47.17717 | 2625 ft | 11 kts | 275° |
| 2026-05-05 20:50 | -23.42617 | -47.17761 | 2625 ft | 4 kts | 307° |
| 2026-05-05 20:50 | -23.42604 | -47.17749 | 2625 ft | 3 kts | 79° |
| 2026-05-05 20:51 | -23.42605 | -47.17717 | 2625 ft | 6 kts | 93° |
| 2026-05-05 20:51 | -23.42622 | -47.17475 | 2626 ft | 74 kts | 94° |
| 2026-05-05 20:51 | -23.42682 | -47.16589 | 2629 ft | 153 kts | 94° |
| 2026-05-05 20:51 | -23.42771 | -47.15345 | 3143 ft | 177 kts | 94° |
| 2026-05-05 20:52 | -23.42867 | -47.13930 | 3743 ft | 199 kts | 94° |
| 2026-05-05 20:52 | -23.42977 | -47.12358 | 4336 ft | 222 kts | 94° |
| 2026-05-05 20:52 | -23.43093 | -47.10676 | 5265 ft | 228 kts | 94° |
| 2026-05-05 20:52 | -23.43180 | -47.08982 | 6319 ft | 226 kts | 82° |
| 2026-05-05 20:53 | -23.42597 | -47.07480 | 7288 ft | 223 kts | 56° |
| 2026-05-05 20:53 | -23.41765 | -47.06071 | 8232 ft | 223 kts | 58° |
| 2026-05-05 20:53 | -23.40978 | -47.04618 | 9074 ft | 227 kts | 60° |
| 2026-05-05 20:53 | -23.40208 | -47.03122 | 9895 ft | 230 kts | 61° |
| 2026-05-05 20:54 | -23.39451 | -47.01609 | 10687 ft | 234 kts | 62° |
| 2026-05-05 20:54 | -23.38682 | -47.00047 | 11471 ft | 238 kts | 63° |
| 2026-05-05 20:54 | -23.37909 | -46.98463 | 12261 ft | 240 kts | 63° |
| 2026-05-05 20:54 | -23.37133 | -46.96869 | 13029 ft | 243 kts | 63° |
| 2026-05-05 20:55 | -23.36338 | -46.95229 | 13791 ft | 246 kts | 63° |
| 2026-05-05 20:55 | -23.35545 | -46.93593 | 14514 ft | 249 kts | 63° |
| 2026-05-05 20:55 | -23.34737 | -46.91924 | 15214 ft | 253 kts | 63° |
| 2026-05-05 20:55 | -23.33924 | -46.90246 | 15884 ft | 257 kts | 63° |
| 2026-05-05 20:56 | -23.33079 | -46.88503 | 16558 ft | 261 kts | 63° |
| 2026-05-05 20:56 | -23.32235 | -46.86762 | 17192 ft | 265 kts | 63° |
| 2026-05-05 20:56 | -23.31369 | -46.84977 | 17827 ft | 270 kts | 63° |
| 2026-05-05 20:56 | -23.30482 | -46.83149 | 18472 ft | 275 kts | 63° |
| 2026-05-05 20:57 | -23.29595 | -46.81321 | 19074 ft | 280 kts | 63° |
| 2026-05-05 20:57 | -23.28670 | -46.79416 | 19693 ft | 285 kts | 63° |
| 2026-05-05 20:57 | -23.27747 | -46.77515 | 20350 ft | 288 kts | 63° |
| 2026-05-05 20:57 | -23.26811 | -46.75589 | 21005 ft | 291 kts | 63° |
| 2026-05-05 20:58 | -23.25867 | -46.73646 | 21611 ft | 295 kts | 63° |
| 2026-05-05 20:58 | -23.24903 | -46.71663 | 22231 ft | 299 kts | 63° |
| 2026-05-05 20:58 | -23.24254 | -46.70329 | 22629 ft | 301 kts | 63° |
| 2026-05-05 20:58 | -23.22933 | -46.67616 | 23399 ft | 308 kts | 63° |
| 2026-05-05 20:59 | -23.21942 | -46.65580 | 23989 ft | 311 kts | 63° |
| 2026-05-05 20:59 | -23.20921 | -46.63485 | 24573 ft | 315 kts | 63° |
| 2026-05-05 20:59 | -23.19894 | -46.61376 | 25152 ft | 318 kts | 63° |
| 2026-05-05 20:59 | -23.18851 | -46.59238 | 25693 ft | 323 kts | 64° |
| 2026-05-05 21:00 | -23.17798 | -46.57077 | 26234 ft | 327 kts | 63° |
| 2026-05-05 21:00 | -23.16733 | -46.54895 | 26747 ft | 331 kts | 64° |
| 2026-05-05 21:00 | -23.15652 | -46.52679 | 27290 ft | 334 kts | 64° |
| 2026-05-05 21:00 | -23.14558 | -46.50440 | 27841 ft | 337 kts | 64° |
| 2026-05-05 21:01 | -23.13457 | -46.48186 | 28362 ft | 340 kts | 64° |
| 2026-05-05 21:01 | -23.12345 | -46.45911 | 28842 ft | 345 kts | 64° |
| 2026-05-05 21:01 | -23.11212 | -46.43595 | 29355 ft | 348 kts | 64° |
| 2026-05-05 21:01 | -23.10088 | -46.41298 | 29835 ft | 351 kts | 64° |
| 2026-05-05 21:02 | -23.08935 | -46.38940 | 30320 ft | 354 kts | 64° |
| 2026-05-05 21:02 | -23.07779 | -46.36581 | 30771 ft | 357 kts | 64° |
| 2026-05-05 21:02 | -23.06599 | -46.34171 | 31195 ft | 362 kts | 64° |
| 2026-05-05 21:02 | -23.05406 | -46.31737 | 31600 ft | 366 kts | 64° |
| 2026-05-05 21:03 | -23.04202 | -46.29283 | 32020 ft | 369 kts | 64° |
| 2026-05-05 21:03 | -23.02981 | -46.26793 | 32424 ft | 373 kts | 64° |
| 2026-05-05 21:03 | -23.01755 | -46.24297 | 32823 ft | 377 kts | 64° |
| 2026-05-05 21:03 | -23.00525 | -46.21794 | 33240 ft | 379 kts | 64° |
| 2026-05-05 21:04 | -22.99277 | -46.19253 | 33628 ft | 383 kts | 64° |
| 2026-05-05 21:04 | -22.98027 | -46.16710 | 34036 ft | 386 kts | 64° |
| 2026-05-05 21:04 | -22.96766 | -46.14148 | 34478 ft | 388 kts | 64° |
| 2026-05-05 21:04 | -22.95492 | -46.11558 | 34908 ft | 390 kts | 65° |
| 2026-05-05 21:05 | -22.94215 | -46.08965 | 35345 ft | 392 kts | 64° |
| 2026-05-05 21:05 | -22.92922 | -46.06340 | 35778 ft | 394 kts | 64° |
| 2026-05-05 21:05 | -22.91629 | -46.03719 | 36176 ft | 397 kts | 65° |
| 2026-05-05 21:05 | -22.90333 | -46.01091 | 36563 ft | 399 kts | 64° |
| 2026-05-05 21:06 | -22.88776 | -45.98552 | 36899 ft | 405 kts | 51° |
| 2026-05-05 21:06 | -22.86816 | -45.96354 | 37228 ft | 409 kts | 40° |
| 2026-05-05 21:06 | -22.84510 | -45.94526 | 37553 ft | 412 kts | 33° |
| 2026-05-05 21:06 | -22.82129 | -45.92779 | 37903 ft | 414 kts | 34° |
| 2026-05-05 21:07 | -22.79762 | -45.91009 | 38228 ft | 417 kts | 34° |
| 2026-05-05 21:07 | -22.77366 | -45.89210 | 38543 ft | 421 kts | 34° |
| 2026-05-05 21:07 | -22.74943 | -45.87386 | 38870 ft | 423 kts | 35° |
| 2026-05-05 21:07 | -22.72525 | -45.85566 | 39183 ft | 426 kts | 35° |
| 2026-05-05 21:08 | -22.70098 | -45.83741 | 39482 ft | 429 kts | 35° |
| 2026-05-05 21:08 | -22.67635 | -45.81889 | 39782 ft | 431 kts | 34° |
| 2026-05-05 21:08 | -22.65148 | -45.80019 | 40049 ft | 435 kts | 34° |
| 2026-05-05 21:08 | -22.62677 | -45.78163 | 40325 ft | 437 kts | 34° |
| 2026-05-05 21:09 | -22.60170 | -45.76281 | 40599 ft | 440 kts | 34° |
| 2026-05-05 21:09 | -22.57629 | -45.74374 | 40872 ft | 443 kts | 34° |
| 2026-05-05 21:09 | -22.55105 | -45.72480 | 41130 ft | 446 kts | 34° |
| 2026-05-05 21:09 | -22.52560 | -45.70571 | 41287 ft | 441 kts | 34° |
| 2026-05-05 21:10 | -22.47497 | -45.66777 | 41301 ft | 446 kts | 34° |
| 2026-05-05 21:10 | -22.42291 | -45.62880 | 41308 ft | 463 kts | 34° |
| 2026-05-05 21:11 | -22.36898 | -45.58846 | 41316 ft | 479 kts | 34° |
| 2026-05-05 21:11 | -22.31301 | -45.54664 | 41317 ft | 496 kts | 34° |
| 2026-05-05 21:12 | -22.25557 | -45.50376 | 41314 ft | 510 kts | 34° |
| 2026-05-05 21:12 | -22.19673 | -45.45987 | 41318 ft | 508 kts | 34° |
| 2026-05-05 21:13 | -22.13876 | -45.41669 | 41328 ft | 506 kts | 34° |
| 2026-05-05 21:13 | -22.08107 | -45.37376 | 41331 ft | 505 kts | 34° |
| 2026-05-05 21:14 | -22.02357 | -45.32990 | 41318 ft | 506 kts | 39° |
| 2026-05-05 21:14 | -21.96850 | -45.28283 | 41314 ft | 506 kts | 38° |
| 2026-05-05 21:15 | -21.91324 | -45.23617 | 41303 ft | 505 kts | 38° |
| 2026-05-05 21:15 | -21.85794 | -45.18956 | 41284 ft | 505 kts | 38° |
| 2026-05-05 21:16 | -21.80247 | -45.14285 | 41291 ft | 504 kts | 38° |
| 2026-05-05 21:16 | -21.74741 | -45.09654 | 41295 ft | 503 kts | 38° |
| 2026-05-05 21:17 | -21.69205 | -45.05001 | 41294 ft | 503 kts | 38° |
| 2026-05-05 21:17 | -21.63704 | -45.00383 | 41293 ft | 503 kts | 38° |
| 2026-05-05 21:18 | -21.58182 | -44.95751 | 41285 ft | 503 kts | 38° |
| 2026-05-05 21:18 | -21.52637 | -44.91106 | 41286 ft | 509 kts | 38° |
| 2026-05-05 21:19 | -21.46999 | -44.86386 | 41283 ft | 515 kts | 38° |
| 2026-05-05 21:19 | -21.41333 | -44.81649 | 41279 ft | 516 kts | 38° |
| 2026-05-05 21:20 | -21.35702 | -44.76945 | 41281 ft | 515 kts | 38° |
| 2026-05-05 21:20 | -21.30046 | -44.72221 | 41276 ft | 516 kts | 38° |
| 2026-05-05 21:21 | -21.24379 | -44.67493 | 41277 ft | 514 kts | 38° |
| 2026-05-05 21:21 | -21.18718 | -44.62774 | 41275 ft | 515 kts | 38° |
| 2026-05-05 21:22 | -21.13074 | -44.58076 | 41281 ft | 515 kts | 38° |
| 2026-05-05 21:22 | -21.07418 | -44.53370 | 41282 ft | 513 kts | 38° |
| 2026-05-05 21:23 | -21.01777 | -44.48683 | 41290 ft | 514 kts | 38° |
| 2026-05-05 21:23 | -20.96146 | -44.44009 | 41293 ft | 513 kts | 38° |
| 2026-05-05 21:24 | -20.90508 | -44.39336 | 41302 ft | 513 kts | 38° |
| 2026-05-05 21:24 | -20.84856 | -44.34657 | 41295 ft | 514 kts | 38° |
| 2026-05-05 21:25 | -20.79204 | -44.29982 | 41300 ft | 513 kts | 37° |
| 2026-05-05 21:25 | -20.73559 | -44.25318 | 41298 ft | 513 kts | 37° |
| 2026-05-05 21:26 | -20.67918 | -44.20661 | 41284 ft | 513 kts | 37° |
| 2026-05-05 21:26 | -20.62277 | -44.15984 | 41286 ft | 512 kts | 38° |
| 2026-05-05 21:27 | -20.56690 | -44.11271 | 41282 ft | 512 kts | 38° |
| 2026-05-05 21:27 | -20.51104 | -44.06568 | 41279 ft | 511 kts | 38° |
| 2026-05-05 21:28 | -20.45478 | -44.01954 | 41279 ft | 512 kts | 37° |
| 2026-05-05 21:28 | -20.39819 | -43.97324 | 41281 ft | 512 kts | 37° |
| 2026-05-05 21:29 | -20.34161 | -43.92697 | 41287 ft | 511 kts | 37° |
| 2026-05-05 21:29 | -20.28536 | -43.88102 | 41295 ft | 512 kts | 37° |
| 2026-05-05 21:30 | -20.22884 | -43.83490 | 41298 ft | 512 kts | 37° |
| 2026-05-05 21:30 | -20.17197 | -43.78854 | 41300 ft | 512 kts | 37° |
| 2026-05-05 21:31 | -20.11553 | -43.74256 | 41308 ft | 511 kts | 37° |
| 2026-05-05 21:31 | -20.05904 | -43.69660 | 41305 ft | 511 kts | 37° |
| 2026-05-05 21:32 | -20.00285 | -43.65091 | 41307 ft | 511 kts | 37° |
| 2026-05-05 21:32 | -19.94633 | -43.60500 | 41296 ft | 510 kts | 37° |
| 2026-05-05 21:33 | -19.88961 | -43.55896 | 41296 ft | 511 kts | 37° |
| 2026-05-05 21:33 | -19.83361 | -43.51341 | 41283 ft | 510 kts | 37° |
| 2026-05-05 21:34 | -19.77715 | -43.46751 | 41278 ft | 509 kts | 37° |
| 2026-05-05 21:34 | -19.72084 | -43.42180 | 41274 ft | 509 kts | 37° |
| 2026-05-05 21:35 | -19.66476 | -43.37631 | 41275 ft | 510 kts | 37° |
| 2026-05-05 21:35 | -19.60831 | -43.33052 | 41261 ft | 510 kts | 37° |
| 2026-05-05 21:36 | -19.55191 | -43.28484 | 41264 ft | 509 kts | 37° |
| 2026-05-05 21:36 | -19.49577 | -43.23941 | 41260 ft | 509 kts | 37° |
| 2026-05-05 21:37 | -19.43925 | -43.19371 | 41258 ft | 508 kts | 37° |
| 2026-05-05 21:37 | -19.38332 | -43.14852 | 41250 ft | 508 kts | 37° |
| 2026-05-05 21:38 | -19.32679 | -43.10289 | 41245 ft | 509 kts | 37° |
| 2026-05-05 21:38 | -19.27035 | -43.05738 | 41238 ft | 508 kts | 37° |
| 2026-05-05 21:39 | -19.21405 | -43.01202 | 41236 ft | 509 kts | 37° |
| 2026-05-05 21:39 | -19.15781 | -42.96674 | 41234 ft | 509 kts | 37° |
| 2026-05-05 21:40 | -19.10170 | -42.92161 | 41236 ft | 508 kts | 37° |
| 2026-05-05 21:40 | -19.04544 | -42.87640 | 41231 ft | 508 kts | 37° |
| 2026-05-05 21:41 | -18.98905 | -42.83112 | 41233 ft | 507 kts | 37° |
| 2026-05-05 21:41 | -18.93274 | -42.78595 | 41239 ft | 507 kts | 37° |
| 2026-05-05 21:42 | -18.87694 | -42.74125 | 41238 ft | 507 kts | 36° |
| 2026-05-05 21:42 | -18.82055 | -42.69611 | 41244 ft | 507 kts | 36° |
| 2026-05-05 21:43 | -18.76436 | -42.65116 | 41261 ft | 507 kts | 37° |
| 2026-05-05 21:43 | -18.70808 | -42.60619 | 41259 ft | 507 kts | 36° |
| 2026-05-05 21:44 | -18.65182 | -42.56127 | 41262 ft | 508 kts | 36° |
| 2026-05-05 21:44 | -18.59545 | -42.51629 | 41243 ft | 507 kts | 36° |
| 2026-05-05 21:45 | -18.53955 | -42.47171 | 41239 ft | 507 kts | 36° |
| 2026-05-05 21:45 | -18.48299 | -42.42665 | 41230 ft | 507 kts | 36° |
| 2026-05-05 21:46 | -18.42685 | -42.38197 | 41237 ft | 506 kts | 36° |
| 2026-05-05 21:46 | -18.37097 | -42.33752 | 41233 ft | 506 kts | 36° |
| 2026-05-05 21:47 | -18.31456 | -42.29269 | 41237 ft | 504 kts | 36° |
| 2026-05-05 21:47 | -18.25869 | -42.24835 | 41248 ft | 504 kts | 36° |
| 2026-05-05 21:48 | -18.20266 | -42.20391 | 41238 ft | 506 kts | 36° |
| 2026-05-05 21:48 | -18.14669 | -42.15956 | 41224 ft | 504 kts | 36° |
| 2026-05-05 21:49 | -18.09043 | -42.11501 | 41214 ft | 504 kts | 36° |
| 2026-05-05 21:49 | -18.03468 | -42.07091 | 41216 ft | 504 kts | 36° |
| 2026-05-05 21:50 | -17.97844 | -42.02645 | 41216 ft | 505 kts | 36° |
| 2026-05-05 21:50 | -17.92218 | -41.98202 | 41225 ft | 504 kts | 36° |
| 2026-05-05 21:51 | -17.86618 | -41.93782 | 41222 ft | 504 kts | 36° |
| 2026-05-05 21:51 | -17.81033 | -41.89378 | 41222 ft | 503 kts | 36° |
| 2026-05-05 21:52 | -17.72610 | -41.82743 | 41223 ft | 504 kts | 36° |
| 2026-05-05 21:53 | -17.67001 | -41.78328 | 41220 ft | 503 kts | 36° |
| 2026-05-05 21:53 | -17.61386 | -41.73913 | 41213 ft | 504 kts | 36° |
| 2026-05-05 21:54 | -17.55804 | -41.69527 | 41205 ft | 504 kts | 35° |
| 2026-05-05 21:54 | -17.50169 | -41.65103 | 41198 ft | 504 kts | 36° |
| 2026-05-05 21:55 | -17.44532 | -41.60681 | 41200 ft | 504 kts | 36° |
| 2026-05-05 21:55 | -17.38932 | -41.56292 | 41201 ft | 504 kts | 35° |
| 2026-05-05 21:56 | -17.33333 | -41.51905 | 41198 ft | 504 kts | 36° |
| 2026-05-05 21:56 | -17.27706 | -41.47499 | 41202 ft | 503 kts | 35° |
| 2026-05-05 21:57 | -17.22091 | -41.43107 | 41208 ft | 503 kts | 35° |
| 2026-05-05 21:57 | -17.16479 | -41.38721 | 41206 ft | 504 kts | 35° |
| 2026-05-05 21:58 | -17.10850 | -41.34323 | 41207 ft | 504 kts | 35° |
| 2026-05-05 21:58 | -17.05272 | -41.29970 | 41196 ft | 498 kts | 35° |
| 2026-05-05 21:59 | -16.99786 | -41.25692 | 41201 ft | 490 kts | 35° |
| 2026-05-05 21:59 | -16.94289 | -41.21408 | 41204 ft | 491 kts | 34° |
| 2026-05-05 22:00 | -16.88834 | -41.17160 | 41190 ft | 490 kts | 34° |
| 2026-05-05 22:00 | -16.83358 | -41.12900 | 41194 ft | 490 kts | 34° |
| 2026-05-05 22:01 | -16.77875 | -41.08637 | 41194 ft | 491 kts | 35° |
| 2026-05-05 22:01 | -16.72399 | -41.04382 | 41192 ft | 491 kts | 34° |
| 2026-05-05 22:02 | -16.66921 | -41.00129 | 41192 ft | 491 kts | 34° |
| 2026-05-05 22:02 | -16.61527 | -40.95943 | 41182 ft | 472 kts | 34° |
| 2026-05-05 22:03 | -16.56282 | -40.91877 | 41205 ft | 470 kts | 34° |
| 2026-05-05 22:03 | -16.53657 | -40.89844 | 40912 ft | 475 kts | 34° |
| 2026-05-05 22:03 | -16.50989 | -40.87777 | 40404 ft | 473 kts | 34° |
| 2026-05-05 22:03 | -16.48359 | -40.85740 | 39871 ft | 470 kts | 34° |
| 2026-05-05 22:04 | -16.45746 | -40.83717 | 39357 ft | 469 kts | 34° |
| 2026-05-05 22:04 | -16.43137 | -40.81699 | 38837 ft | 469 kts | 34° |
| 2026-05-05 22:04 | -16.40530 | -40.79681 | 38333 ft | 470 kts | 34° |
| 2026-05-05 22:04 | -16.37883 | -40.77636 | 37807 ft | 471 kts | 34° |
| 2026-05-05 22:05 | -16.35242 | -40.75594 | 37281 ft | 471 kts | 34° |
| 2026-05-05 22:05 | -16.32640 | -40.73582 | 36761 ft | 470 kts | 34° |
| 2026-05-05 22:05 | -16.29993 | -40.71538 | 36237 ft | 470 kts | 34° |
| 2026-05-05 22:05 | -16.27381 | -40.69521 | 35715 ft | 470 kts | 34° |
| 2026-05-05 22:06 | -16.24755 | -40.67494 | 35191 ft | 471 kts | 34° |
| 2026-05-05 22:06 | -16.22132 | -40.65470 | 34671 ft | 470 kts | 34° |
| 2026-05-05 22:06 | -16.19489 | -40.63431 | 34150 ft | 471 kts | 34° |
| 2026-05-05 22:06 | -16.16859 | -40.61402 | 33629 ft | 471 kts | 34° |
| 2026-05-05 22:07 | -16.14217 | -40.59366 | 33111 ft | 472 kts | 34° |
| 2026-05-05 22:07 | -16.11579 | -40.57333 | 32601 ft | 472 kts | 34° |
| 2026-05-05 22:07 | -16.08941 | -40.55300 | 32080 ft | 471 kts | 34° |
| 2026-05-05 22:07 | -16.06341 | -40.53298 | 31564 ft | 470 kts | 34° |
| 2026-05-05 22:08 | -16.03710 | -40.51273 | 31045 ft | 470 kts | 34° |
| 2026-05-05 22:08 | -16.01098 | -40.49263 | 30526 ft | 467 kts | 34° |
| 2026-05-05 22:08 | -15.98484 | -40.47251 | 30009 ft | 462 kts | 34° |
| 2026-05-05 22:08 | -15.95939 | -40.45293 | 29506 ft | 456 kts | 34° |
| 2026-05-05 22:09 | -15.93387 | -40.43334 | 28991 ft | 451 kts | 34° |
| 2026-05-05 22:09 | -15.90869 | -40.41401 | 28491 ft | 448 kts | 34° |
| 2026-05-05 22:09 | -15.88372 | -40.39485 | 27999 ft | 445 kts | 34° |
| 2026-05-05 22:09 | -15.85903 | -40.37591 | 27508 ft | 443 kts | 34° |
| 2026-05-05 22:10 | -15.83438 | -40.35701 | 27022 ft | 440 kts | 34° |
| 2026-05-05 22:10 | -15.80980 | -40.33817 | 26530 ft | 437 kts | 34° |
| 2026-05-05 22:10 | -15.78528 | -40.31937 | 26042 ft | 433 kts | 34° |
| 2026-05-05 22:10 | -15.76133 | -40.30102 | 25567 ft | 431 kts | 34° |
| 2026-05-05 22:11 | -15.73721 | -40.28254 | 25092 ft | 428 kts | 35° |
| 2026-05-05 22:11 | -15.71325 | -40.26420 | 24620 ft | 426 kts | 35° |
| 2026-05-05 22:11 | -15.68965 | -40.24613 | 24151 ft | 423 kts | 35° |
| 2026-05-05 22:11 | -15.66604 | -40.22807 | 23689 ft | 420 kts | 35° |
| 2026-05-05 22:12 | -15.64250 | -40.21006 | 23225 ft | 418 kts | 35° |
| 2026-05-05 22:12 | -15.61896 | -40.19206 | 22760 ft | 415 kts | 36° |
| 2026-05-05 22:12 | -15.59647 | -40.17389 | 22303 ft | 414 kts | 45° |
| 2026-05-05 22:12 | -15.58020 | -40.14949 | 21861 ft | 410 kts | 66° |
| 2026-05-05 22:13 | -15.56949 | -40.12230 | 21396 ft | 406 kts | 69° |
| 2026-05-05 22:13 | -15.55926 | -40.09532 | 20938 ft | 401 kts | 69° |
| 2026-05-05 22:13 | -15.54917 | -40.06856 | 20493 ft | 396 kts | 69° |
| 2026-05-05 22:13 | -15.53921 | -40.04211 | 20054 ft | 391 kts | 69° |
| 2026-05-05 22:14 | -15.52939 | -40.01603 | 19624 ft | 388 kts | 70° |
| 2026-05-05 22:14 | -15.51961 | -39.99007 | 19192 ft | 384 kts | 69° |
| 2026-05-05 22:14 | -15.51006 | -39.96472 | 18774 ft | 379 kts | 70° |
| 2026-05-05 22:14 | -15.50058 | -39.93957 | 18356 ft | 375 kts | 70° |
| 2026-05-05 22:15 | -15.49109 | -39.91441 | 17938 ft | 371 kts | 70° |
| 2026-05-05 22:15 | -15.48175 | -39.88965 | 17529 ft | 368 kts | 70° |
| 2026-05-05 22:15 | -15.47244 | -39.86498 | 17121 ft | 364 kts | 70° |
| 2026-05-05 22:15 | -15.46333 | -39.84086 | 16725 ft | 362 kts | 70° |
| 2026-05-05 22:16 | -15.45420 | -39.81668 | 16327 ft | 359 kts | 70° |
| 2026-05-05 22:16 | -15.44511 | -39.79261 | 15931 ft | 356 kts | 70° |
| 2026-05-05 22:16 | -15.43623 | -39.76910 | 15536 ft | 353 kts | 70° |
| 2026-05-05 22:16 | -15.42726 | -39.74540 | 15142 ft | 350 kts | 70° |
| 2026-05-05 22:17 | -15.41847 | -39.72214 | 14763 ft | 348 kts | 70° |
| 2026-05-05 22:17 | -15.40958 | -39.69867 | 14377 ft | 345 kts | 70° |
| 2026-05-05 22:17 | -15.40090 | -39.67573 | 13994 ft | 341 kts | 70° |
| 2026-05-05 22:17 | -15.39229 | -39.65299 | 13619 ft | 338 kts | 70° |
| 2026-05-05 22:18 | -15.38376 | -39.63047 | 13248 ft | 335 kts | 70° |
| 2026-05-05 22:18 | -15.37530 | -39.60812 | 12880 ft | 332 kts | 70° |
| 2026-05-05 22:18 | -15.36689 | -39.58595 | 12517 ft | 330 kts | 70° |
| 2026-05-05 22:18 | -15.35854 | -39.56393 | 12154 ft | 326 kts | 70° |
| 2026-05-05 22:19 | -15.35039 | -39.54242 | 11800 ft | 322 kts | 70° |
| 2026-05-05 22:19 | -15.34231 | -39.52113 | 11446 ft | 313 kts | 70° |
| 2026-05-05 22:19 | -15.33444 | -39.50040 | 11096 ft | 305 kts | 70° |
| 2026-05-05 22:19 | -15.32681 | -39.48029 | 10763 ft | 297 kts | 70° |
| 2026-05-05 22:20 | -15.31938 | -39.46074 | 10436 ft | 288 kts | 70° |
| 2026-05-05 22:20 | -15.31207 | -39.44151 | 10111 ft | 280 kts | 70° |
| 2026-05-05 22:20 | -15.30509 | -39.42313 | 9814 ft | 274 kts | 70° |
| 2026-05-05 22:20 | -15.29809 | -39.40469 | 9509 ft | 272 kts | 70° |
| 2026-05-05 22:21 | -15.29122 | -39.38663 | 9220 ft | 271 kts | 71° |
| 2026-05-05 22:21 | -15.28432 | -39.36848 | 8917 ft | 272 kts | 70° |
| 2026-05-05 22:21 | -15.27734 | -39.35013 | 8608 ft | 271 kts | 70° |
| 2026-05-05 22:21 | -15.27053 | -39.33224 | 8312 ft | 270 kts | 70° |
| 2026-05-05 22:22 | -15.26365 | -39.31415 | 8016 ft | 269 kts | 70° |
| 2026-05-05 22:22 | -15.25676 | -39.29606 | 7702 ft | 269 kts | 70° |
| 2026-05-05 22:22 | -15.24990 | -39.27805 | 7402 ft | 267 kts | 70° |
| 2026-05-05 22:22 | -15.24316 | -39.26034 | 7067 ft | 266 kts | 70° |
| 2026-05-05 22:23 | -15.23647 | -39.24280 | 6750 ft | 258 kts | 70° |
| 2026-05-05 22:23 | -15.22992 | -39.22564 | 6458 ft | 249 kts | 71° |
| 2026-05-05 22:23 | -15.22371 | -39.20932 | 6186 ft | 241 kts | 71° |
| 2026-05-05 22:23 | -15.21764 | -39.19342 | 5924 ft | 234 kts | 71° |
| 2026-05-05 22:24 | -15.21175 | -39.17799 | 5665 ft | 228 kts | 71° |
| 2026-05-05 22:24 | -15.20595 | -39.16277 | 5412 ft | 222 kts | 71° |
| 2026-05-05 22:24 | -15.20036 | -39.14812 | 5163 ft | 217 kts | 71° |
| 2026-05-05 22:24 | -15.19485 | -39.13370 | 4919 ft | 212 kts | 71° |
| 2026-05-05 22:25 | -15.18999 | -39.11976 | 4688 ft | 205 kts | 83° |
| 2026-05-05 22:25 | -15.18832 | -39.10546 | 4563 ft | 194 kts | 87° |
| 2026-05-05 22:25 | -15.18692 | -39.09169 | 4439 ft | 192 kts | 87° |
| 2026-05-05 22:25 | -15.18552 | -39.07774 | 4196 ft | 196 kts | 87° |
| 2026-05-05 22:26 | -15.18412 | -39.06403 | 3939 ft | 190 kts | 87° |
| 2026-05-05 22:26 | -15.18276 | -39.05063 | 3705 ft | 183 kts | 87° |
| 2026-05-05 22:26 | -15.18145 | -39.03771 | 3499 ft | 180 kts | 88° |
| 2026-05-05 22:26 | -15.18332 | -39.02538 | 3291 ft | 175 kts | 125° |
| 2026-05-05 22:27 | -15.19311 | -39.01837 | 3073 ft | 179 kts | 164° |
| 2026-05-05 22:27 | -15.20549 | -39.01609 | 2810 ft | 179 kts | 169° |
| 2026-05-05 22:27 | -15.21784 | -39.01426 | 2555 ft | 177 kts | 170° |
| 2026-05-05 22:27 | -15.22991 | -39.01265 | 2315 ft | 172 kts | 171° |
| 2026-05-05 22:28 | -15.24111 | -39.01128 | 2155 ft | 153 kts | 171° |
| 2026-05-05 22:28 | -15.25160 | -39.01004 | 1930 ft | 147 kts | 171° |
| 2026-05-05 22:28 | -15.26121 | -39.00894 | 1696 ft | 130 kts | 171° |
| 2026-05-05 22:28 | -15.27011 | -39.00794 | 1528 ft | 127 kts | 171° |
| 2026-05-05 22:29 | -15.27904 | -39.00693 | 1370 ft | 130 kts | 171° |
| 2026-05-05 22:29 | -15.28824 | -39.00591 | 1200 ft | 132 kts | 171° |
| 2026-05-05 22:29 | -15.29754 | -39.00489 | 1021 ft | 135 kts | 172° |
| 2026-05-05 22:29 | -15.30696 | -39.00386 | 839 ft | 135 kts | 172° |
| 2026-05-05 22:30 | -15.31633 | -39.00284 | 655 ft | 136 kts | 172° |
| 2026-05-05 22:30 | -15.32562 | -39.00184 | 438 ft | 128 kts | 172° |
| 2026-05-05 22:30 | -15.33445 | -39.00084 | 226 ft | 125 kts | 172° |
| 2026-05-05 22:30 | -15.34308 | -38.99997 | 83 ft | 124 kts | 172° |
| 2026-05-05 22:31 | -15.35128 | -38.99907 | 24 ft | 96 kts | 172° |
| 2026-05-05 22:31 | -15.35474 | -38.99869 | 21 ft | 30 kts | 174° |
| 2026-05-05 22:31 | -15.35659 | -38.99849 | 21 ft | 17 kts | 176° |
| 2026-05-05 22:31 | -15.35728 | -38.99834 | 21 ft | 8 kts | 126° |
| 2026-05-05 22:32 | -15.35726 | -38.99763 | 21 ft | 10 kts | 83° |
| 2026-05-05 22:32 | -15.35719 | -38.99692 | 21 ft | 8 kts | 85° |
| 2026-05-05 22:32 | -15.35709 | -38.99656 | 21 ft | 3 kts | 51° |
| 2026-05-05 22:32 | -15.35699 | -38.99633 | 21 ft | 3 kts | 81° |
| 2026-05-05 22:33 | -15.35698 | -38.99618 | 22 ft | 0 kts | 83° |
| 2026-05-05 22:33 | -15.35697 | -38.99617 | 22 ft | 0 kts | 83° |